Time;durP1;ratioP1;P1;durP2;ratioP2;P2;SDS_P1;SDS_P2;PMS_P1;PMS_P2;Temp;Humidity;BMP_temperature;BMP_pressure;BME280_temperature;BME280_humidity;BME280_pressure;Samples;Min_cycle;Max_cycle;Signal;HPM_P1;HPM_P2
2023/06/09 00:02:18;;;;;;;20.40;9.88;;;;;;;17.66;62.34;101353.00;5114943;27;20019;-58
2023/06/09 00:04:44;;;;;;;19.00;10.30;;;;;;;17.56;62.63;101356.22;5115315;28;20027;-58
2023/06/09 00:07:09;;;;;;;20.02;10.20;;;;;;;17.54;62.59;101347.34;5115153;28;20034;-58
2023/06/09 00:09:35;;;;;;;20.45;10.18;;;;;;;17.54;62.31;101350.16;5112568;28;20020;-58
2023/06/09 00:12:02;;;;;;;20.30;10.05;;;;;;;17.48;62.78;101348.72;5114246;28;20023;-58
2023/06/09 00:14:27;;;;;;;20.48;10.27;;;;;;;17.43;62.85;101347.75;5115086;28;20039;-60
2023/06/09 00:16:52;;;;;;;20.80;10.52;;;;;;;17.38;62.91;101339.59;5114491;28;20024;-60
2023/06/09 00:19:18;;;;;;;22.33;10.20;;;;;;;17.37;63.04;101339.94;5094282;28;20051;-60
2023/06/09 00:21:49;;;;;;;20.38;9.75;;;;;;;17.33;63.20;101334.22;5094676;28;20024;-60
2023/06/09 00:24:19;;;;;;;19.13;10.20;;;;;;;17.28;63.21;101335.22;5094755;28;20476;-60
2023/06/09 00:26:45;;;;;;;21.95;9.93;;;;;;;17.20;63.38;101332.47;5093380;28;20073;-59
2023/06/09 00:29:11;;;;;;;20.10;9.82;;;;;;;17.14;63.93;101334.66;5094383;28;20036;-59
2023/06/09 00:31:36;;;;;;;19.23;9.45;;;;;;;17.07;63.80;101337.97;5094599;28;20038;-59
2023/06/09 00:34:01;;;;;;;20.15;10.50;;;;;;;17.04;64.14;101338.69;5094342;28;20451;-59
2023/06/09 00:36:26;;;;;;;19.08;9.80;;;;;;;17.03;64.17;101344.59;5094046;28;20067;-59
2023/06/09 00:38:52;;;;;;;18.52;10.10;;;;;;;16.99;64.10;101336.06;5094300;28;20148;-58
2023/06/09 00:41:17;;;;;;;20.92;10.57;;;;;;;16.96;64.15;101337.56;5093768;28;20035;-59
2023/06/09 00:43:47;;;;;;;18.98;10.23;;;;;;;16.95;64.13;101343.50;5094224;28;20048;-59
2023/06/09 00:46:13;;;;;;;19.55;9.85;;;;;;;16.89;64.46;101334.47;5094031;28;20089;-60
2023/06/09 00:48:38;;;;;;;21.15;10.80;;;;;;;16.85;64.39;101339.06;5094138;28;20436;-59
2023/06/09 00:51:04;;;;;;;20.77;10.07;;;;;;;16.80;64.50;101336.47;5093972;28;20047;-60
2023/06/09 00:53:30;;;;;;;20.98;10.25;;;;;;;16.79;64.56;101341.22;5094100;28;20115;-59
2023/06/09 00:55:56;;;;;;;18.58;10.50;;;;;;;16.75;65.04;101334.69;5093907;28;20510;-59
2023/06/09 00:58:23;;;;;;;19.92;10.10;;;;;;;16.71;65.04;101332.91;5104233;28;20027;-59
2023/06/09 01:00:50;;;;;;;19.65;10.57;;;;;;;16.69;65.07;101325.69;5114088;28;20027;-59
2023/06/09 01:03:16;;;;;;;19.88;10.68;;;;;;;16.62;65.54;101330.16;5114062;28;20028;-59
2023/06/09 01:05:44;;;;;;;20.70;10.35;;;;;;;16.58;65.71;101332.81;5114189;27;20030;-59
2023/06/09 01:08:35;;;;;;;19.92;10.45;;;;;;;16.59;65.49;101334.44;5113889;28;20113;-59
2023/06/09 01:11:11;;;;;;;19.88;10.48;;;;;;;16.51;66.03;101327.72;5113958;28;20483;-59
2023/06/09 01:13:44;;;;;;;19.92;10.40;;;;;;;16.48;65.95;101324.78;5113868;28;20124;-59
2023/06/09 01:16:12;;;;;;;;;;;;;;;16.54;64.60;101317.84;5114290;28;20436;-59
2023/06/09 01:18:42;;;;;;;20.65;10.18;;;;;;;16.40;66.48;101322.84;5113454;28;19912;-59
2023/06/09 01:21:17;;;;;;;20.20;10.23;;;;;;;16.43;66.49;101327.78;5113636;28;20034;-59
2023/06/09 01:24:09;;;;;;;21.58;10.38;;;;;;;16.37;66.61;101325.16;5113485;28;20489;-59
2023/06/09 01:26:38;;;;;;;20.83;10.40;;;;;;;16.32;66.85;101324.53;5113821;28;20036;-59
2023/06/09 01:29:04;;;;;;;20.10;10.30;;;;;;;16.30;66.82;101324.03;5111587;28;20051;-59
2023/06/09 01:31:31;;;;;;;23.08;10.00;;;;;;;16.30;67.01;101319.28;5112345;28;20031;-59
2023/06/09 01:33:56;;;;;;;21.13;9.77;;;;;;;16.25;67.14;101315.84;5113107;28;20077;-59
2023/06/09 01:36:22;;;;;;;21.85;10.20;;;;;;;16.20;67.32;101316.84;5113506;28;20095;-59
2023/06/09 01:38:48;;;;;;;19.75;10.23;;;;;;;16.16;67.57;101318.66;5113284;28;20024;-59
2023/06/09 01:41:13;;;;;;;19.05;10.77;;;;;;;16.15;67.55;101314.25;5113436;28;20024;-59
2023/06/09 01:43:38;;;;;;;19.92;10.70;;;;;;;16.03;68.29;101318.53;5113292;28;20387;-59
2023/06/09 01:46:04;;;;;;;20.33;10.15;;;;;;;16.03;68.37;101314.91;5098344;28;20024;-59
2023/06/09 01:49:00;;;;;;;20.60;10.40;;;;;;;15.98;68.70;101315.09;5092267;28;20104;-58
2023/06/09 01:51:38;;;;;;;21.52;10.18;;;;;;;15.90;69.05;101320.38;5093098;28;20035;-59
2023/06/09 01:54:10;;;;;;;20.90;10.77;;;;;;;15.86;69.06;101318.59;5093093;28;20093;-59
2023/06/09 01:56:47;;;;;;;20.38;10.38;;;;;;;15.85;68.66;101314.94;5092554;28;20028;-58
2023/06/09 01:59:19;;;;;;;19.67;10.20;;;;;;;15.82;69.28;101312.78;5092973;28;20391;-59
2023/06/09 02:01:47;;;;;;;21.60;10.02;;;;;;;15.75;69.73;101310.53;5092958;28;20023;-59
2023/06/09 02:04:14;;;;;;;20.17;9.95;;;;;;;15.81;69.70;101301.97;5092615;28;20024;-59
2023/06/09 02:06:40;;;;;;;21.13;10.88;;;;;;;15.72;69.77;101305.59;5092516;28;20549;-58
2023/06/09 02:09:06;;;;;;;21.33;10.88;;;;;;;15.73;70.07;101306.41;5092484;28;20032;-58
2023/06/09 02:11:31;;;;;;;23.38;10.45;;;;;;;15.67;70.41;101294.63;5092508;28;20073;-59
2023/06/09 02:13:56;;;;;;;19.48;11.02;;;;;;;15.70;70.11;101293.13;5092568;28;20035;-57
2023/06/09 02:16:22;;;;;;;19.92;10.88;;;;;;;15.62;70.89;101299.53;5092533;28;20165;-58
2023/06/09 02:18:49;;;;;;;20.60;11.05;;;;;;;15.62;70.82;101303.13;5091977;28;20023;-59
2023/06/09 02:21:14;;;;;;;22.00;12.10;;;;;;;15.56;71.20;101294.13;5092524;28;20105;-59
2023/06/09 02:23:40;;;;;;;20.60;10.95;;;;;;;15.45;71.70;101292.81;5092329;28;20028;-59
2023/06/09 02:26:06;;;;;;;21.73;11.65;;;;;;;15.41;72.47;101297.41;5092371;28;20036;-59
2023/06/09 02:28:32;;;;;;;20.92;11.20;;;;;;;15.33;72.53;101306.59;5092364;28;20024;-59
2023/06/09 02:30:57;;;;;;;21.17;11.40;;;;;;;15.29;72.63;101298.09;5088592;28;20444;-59
2023/06/09 02:33:24;;;;;;;21.30;11.75;;;;;;;15.23;72.76;101294.63;5092458;28;20028;-59
2023/06/09 02:35:50;;;;;;;20.80;11.35;;;;;;;15.23;72.98;101291.00;5092381;28;20523;-58
2023/06/09 02:38:15;;;;;;;21.10;11.05;;;;;;;15.18;73.57;101282.81;5096327;28;20110;-58
2023/06/09 02:40:46;;;;;;;21.75;11.82;;;;;;;15.16;73.39;101291.50;5112519;28;20023;-58
2023/06/09 02:43:12;;;;;;;21.25;11.73;;;;;;;15.12;73.74;101296.91;5112639;28;20165;-59
2023/06/09 02:45:37;;;;;;;21.02;11.48;;;;;;;15.11;73.46;101289.69;5112801;28;20091;-59
2023/06/09 02:48:02;;;;;;;21.48;11.52;;;;;;;15.13;73.44;101287.41;5112268;28;20039;-58
2023/06/09 02:50:28;;;;;;;23.60;12.02;;;;;;;15.10;73.66;101290.84;5112649;28;20043;-59
2023/06/09 02:52:53;;;;;;;21.52;11.25;;;;;;;15.11;74.08;101283.31;5112321;28;20111;-58
2023/06/09 02:55:18;;;;;;;20.85;11.60;;;;;;;15.04;74.53;101300.50;5072058;28;20025;-58
2023/06/09 02:57:45;;;;;;;20.70;11.55;;;;;;;15.01;74.41;101303.13;5071967;28;20094;-59
2023/06/09 03:00:12;;;;;;;21.08;10.95;;;;;;;14.95;74.82;101296.88;5092085;28;20115;-59
2023/06/09 03:02:38;;;;;;;23.75;11.35;;;;;;;14.90;75.09;101295.06;5095973;28;20020;-59
2023/06/09 03:05:05;;;;;;;19.95;11.20;;;;;;;14.86;75.37;101296.88;5096044;28;20020;-59
2023/06/09 03:07:31;;;;;;;21.67;11.10;;;;;;;14.88;74.94;101296.53;5095968;28;20101;-59
2023/06/09 03:09:56;;;;;;;22.40;11.80;;;;;;;14.90;74.54;101302.63;5096178;28;20459;-59
2023/06/09 03:12:22;;;;;;;21.42;11.80;;;;;;;14.83;75.76;101297.53;5095947;28;20024;-59
2023/06/09 03:14:47;;;;;;;22.20;11.90;;;;;;;14.78;75.94;101295.72;5096047;28;20028;-59
2023/06/09 03:17:13;;;;;;;22.75;11.93;;;;;;;14.82;76.00;101296.72;5095961;28;20082;-59
2023/06/09 03:19:38;;;;;;;20.42;11.15;;;;;;;14.74;76.23;101291.09;5095602;28;20484;-59
2023/06/09 03:22:04;;;;;;;21.05;10.00;;;;;;;14.74;76.12;101293.88;5095650;28;20032;-60
2023/06/09 03:24:30;;;;;;;21.55;11.18;;;;;;;14.69;76.30;101294.88;5096007;28;20131;-60
2023/06/09 03:26:56;;;;;;;21.00;10.32;;;;;;;14.64;76.63;101295.81;5095763;28;20120;-59
2023/06/09 03:29:22;;;;;;;21.65;10.75;;;;;;;14.60;77.08;101292.00;5092913;28;20051;-58
2023/06/09 03:31:47;;;;;;;21.27;10.55;;;;;;;14.57;77.05;101292.69;5095104;28;20491;-59
2023/06/09 03:34:12;;;;;;;21.90;11.13;;;;;;;14.57;77.09;101289.06;5095538;28;20040;-59
2023/06/09 03:36:37;;;;;;;21.70;11.20;;;;;;;14.51;77.39;101296.72;5095467;28;20054;-58
2023/06/09 03:39:03;;;;;;;21.55;10.80;;;;;;;14.50;77.37;101292.31;5095607;28;20032;-59
2023/06/09 03:41:29;;;;;;;20.13;10.50;;;;;;;14.51;77.43;101297.56;5095465;28;20020;-59
2023/06/09 03:43:54;;;;;;;22.75;9.98;;;;;;;14.54;77.27;101303.63;5095406;28;20031;-59
2023/06/09 03:46:20;;;;;;;21.45;10.20;;;;;;;14.60;77.41;101305.94;5095247;28;20024;-59
2023/06/09 03:48:46;;;;;;;20.70;10.00;;;;;;;14.87;76.37;101306.03;5095392;28;20483;-59
2023/06/09 03:51:11;;;;;;;22.95;10.48;;;;;;;15.06;75.60;101319.69;5095125;28;20051;-59
2023/06/09 03:53:37;;;;;;;20.48;10.68;;;;;;;15.14;75.19;101321.66;5095536;28;20063;-59
2023/06/09 03:56:02;;;;;;;23.98;11.18;;;;;;;15.04;75.24;101320.00;5095076;28;20024;-59
2023/06/09 03:58:28;;;;;;;22.23;10.15;;;;;;;14.90;75.88;101317.34;5095208;28;20746;-59
2023/06/09 04:00:53;;;;;;;22.35;10.57;;;;;;;14.81;76.72;101319.28;5095109;28;20040;-59
2023/06/09 04:03:20;;;;;;;22.70;10.35;;;;;;;14.74;76.78;101322.53;5094906;28;20028;-59
2023/06/09 04:05:46;;;;;;;22.77;10.50;;;;;;;14.79;77.27;101316.00;5115305;28;20023;-59
2023/06/09 04:08:12;;;;;;;22.55;10.57;;;;;;;14.75;77.08;101315.84;5115069;28;20093;-59
2023/06/09 04:10:38;;;;;;;25.38;10.48;;;;;;;14.70;77.41;101313.22;5114834;28;20471;-60
2023/06/09 04:13:03;;;;;;;24.95;10.55;;;;;;;14.73;77.53;101314.53;5113990;28;20023;-59
2023/06/09 04:15:29;;;;;;;22.95;10.70;;;;;;;14.74;77.66;101316.97;5114371;28;20053;-59
2023/06/09 04:17:54;;;;;;;23.98;10.93;;;;;;;14.76;77.53;101316.69;5115113;28;20059;-59
2023/06/09 04:20:22;;;;;;;22.20;10.85;;;;;;;14.76;77.74;101309.13;5114644;28;20044;-60
2023/06/09 04:22:51;;;;;;;23.88;11.07;;;;;;;14.77;77.94;101313.56;5114838;28;20443;-59
2023/06/09 04:25:17;;;;;;;21.13;10.23;;;;;;;14.78;77.94;101325.53;5114538;28;20027;-60
2023/06/09 04:27:42;;;;;;;23.13;10.45;;;;;;;14.72;78.78;101324.03;5111320;28;20390;-59
2023/06/09 04:30:09;;;;;;;22.33;10.77;;;;;;;14.72;78.76;101319.28;5114495;28;20462;-60
2023/06/09 04:32:34;;;;;;;23.85;10.95;;;;;;;14.68;79.36;101326.63;5099434;28;20028;-59
2023/06/09 04:35:01;;;;;;;22.55;10.82;;;;;;;14.72;79.15;101326.81;5106404;28;20066;-59
2023/06/09 04:37:26;;;;;;;21.42;10.57;;;;;;;14.78;79.32;101328.31;5114991;28;20050;-59
2023/06/09 04:39:52;;;;;;;23.02;11.05;;;;;;;14.87;79.43;101320.81;5114257;28;20404;-59
2023/06/09 04:42:22;;;;;;;22.67;10.90;;;;;;;14.94;78.99;101332.28;5114736;28;20039;-60
2023/06/09 04:44:48;;;;;;;21.92;11.02;;;;;;;14.96;78.80;101330.00;5114419;27;20028;-59
2023/06/09 04:47:20;;;;;;;22.63;11.70;;;;;;;14.98;78.88;101330.47;5114558;28;20030;-60
2023/06/09 04:49:49;;;;;;;21.90;11.32;;;;;;;15.02;78.83;101344.56;5114145;28;20050;-59
2023/06/09 04:52:19;;;;;;;21.73;11.23;;;;;;;15.07;79.02;101335.25;5114466;28;20475;-59
2023/06/09 04:54:44;;;;;;;22.45;10.75;;;;;;;15.11;79.20;101327.88;5114236;28;20028;-59
2023/06/09 04:57:11;;;;;;;26.45;11.32;;;;;;;15.16;78.81;101326.91;5114367;28;20144;-59
2023/06/09 04:59:39;;;;;;;23.17;11.07;;;;;;;15.26;78.65;101329.38;5113978;28;20506;-59
2023/06/09 05:02:04;;;;;;;22.13;11.75;;;;;;;15.33;78.41;101328.91;5114057;28;20043;-59
2023/06/09 05:04:30;;;;;;;23.00;11.68;;;;;;;15.31;78.62;101331.19;5113794;28;20036;-59
2023/06/09 05:06:55;;;;;;;24.10;11.98;;;;;;;15.33;78.80;101340.06;5114098;27;20027;-59
2023/06/09 05:09:21;;;;;;;23.42;11.90;;;;;;;15.33;78.75;101334.47;5114299;28;20023;-60
2023/06/09 05:11:46;;;;;;;23.30;12.38;;;;;;;15.42;78.90;101321.38;5114218;28;20028;-59
2023/06/09 05:14:11;;;;;;;23.95;12.30;;;;;;;15.58;78.81;101328.09;5113782;28;20472;-59
2023/06/09 05:16:37;;;;;;;22.88;11.82;;;;;;;15.63;78.30;101335.47;5114001;28;20031;-59
2023/06/09 05:19:03;;;;;;;26.27;12.65;;;;;;;15.57;78.80;101320.88;5112116;28;20039;-59
2023/06/09 05:21:28;;;;;;;24.10;12.50;;;;;;;15.69;78.67;101342.50;5093448;28;20020;-59
2023/06/09 05:23:54;;;;;;;26.00;13.35;;;;;;;15.79;78.65;101330.19;5089645;28;20031;-59
2023/06/09 05:26:20;;;;;;;27.73;12.95;;;;;;;15.85;78.08;101334.47;5093516;28;20127;-59
2023/06/09 05:28:46;;;;;;;26.00;12.82;;;;;;;15.99;77.67;101341.84;5093429;28;20028;-59
2023/06/09 05:31:12;;;;;;;27.08;12.70;;;;;;;16.01;78.17;101342.34;5093522;28;20042;-59
2023/06/09 05:33:38;;;;;;;22.95;12.40;;;;;;;16.10;78.05;101340.38;5093271;28;20111;-59
2023/06/09 05:36:04;;;;;;;22.00;12.00;;;;;;;16.16;77.66;101335.41;5093390;28;20035;-59
2023/06/09 05:38:29;;;;;;;23.38;12.65;;;;;;;16.28;77.50;101341.13;5093253;28;20054;-59
2023/06/09 05:40:55;;;;;;;22.60;11.85;;;;;;;16.42;77.16;101343.69;5093012;28;20058;-59
2023/06/09 05:43:20;;;;;;;23.30;12.85;;;;;;;16.51;76.83;101341.69;5093141;28;20089;-60
2023/06/09 05:45:45;;;;;;;23.48;12.30;;;;;;;16.52;76.55;101334.97;5092888;28;20049;-60
2023/06/09 05:48:11;;;;;;;26.33;12.60;;;;;;;16.63;76.18;101335.38;5092946;28;20391;-60
2023/06/09 05:50:37;;;;;;;25.17;13.45;;;;;;;16.71;76.54;101344.09;5092847;28;20024;-59
2023/06/09 05:53:03;;;;;;;22.25;12.30;;;;;;;16.75;76.38;101343.09;5093015;28;20107;-61
2023/06/09 05:55:28;;;;;;;23.77;12.68;;;;;;;16.84;76.02;101348.59;5092971;28;20110;-61
2023/06/09 05:57:54;;;;;;;26.08;13.65;;;;;;;16.86;76.07;101339.91;5092974;28;20039;-61
2023/06/09 06:00:19;;;;;;;25.48;13.57;;;;;;;16.92;75.78;101347.75;5091383;28;20503;-60
2023/06/09 06:02:45;;;;;;;25.33;13.27;;;;;;;17.01;76.16;101342.13;5092577;28;20502;-61
2023/06/09 06:05:12;;;;;;;25.90;13.60;;;;;;;17.03;75.66;101348.22;5092923;28;20028;-61
2023/06/09 06:07:38;;;;;;;27.63;13.90;;;;;;;17.13;75.51;101342.25;5092637;28;20040;-61
2023/06/09 06:10:05;;;;;;;23.73;12.77;;;;;;;17.24;75.29;101336.25;5092794;28;20024;-61
2023/06/09 06:12:31;;;;;;;24.25;13.80;;;;;;;17.30;75.27;101337.66;5092722;28;20043;-61
2023/06/09 06:14:56;;;;;;;25.42;13.82;;;;;;;17.33;75.19;101336.16;5092672;28;20059;-61
2023/06/09 06:17:22;;;;;;;24.05;13.65;;;;;;;17.39;75.38;101332.00;5091567;28;20071;-59
2023/06/09 06:19:47;;;;;;;24.83;13.55;;;;;;;17.52;74.98;101339.31;5089739;28;20079;-61
2023/06/09 06:22:12;;;;;;;25.42;14.63;;;;;;;17.61;74.83;101336.44;5092525;28;20112;-61
2023/06/09 06:24:38;;;;;;;26.08;13.93;;;;;;;17.70;74.93;101341.94;5092329;28;20032;-61
2023/06/09 06:27:03;;;;;;;25.35;14.30;;;;;;;17.84;74.35;101339.69;5092366;28;20073;-61
2023/06/09 06:29:30;;;;;;;26.77;14.55;;;;;;;17.99;74.59;101345.81;5092268;28;20352;-61
2023/06/09 06:31:56;;;;;;;26.50;16.20;;;;;;;18.00;74.31;101341.88;5092140;28;20038;-61
2023/06/09 06:34:21;;;;;;;26.00;14.65;;;;;;;18.13;74.14;101343.53;5092329;28;20028;-61
2023/06/09 06:36:46;;;;;;;24.90;14.50;;;;;;;18.21;73.70;101334.22;5112459;28;20027;-61
2023/06/09 06:39:12;;;;;;;24.40;14.65;;;;;;;18.13;73.93;101340.75;5112890;28;20086;-61
2023/06/09 06:41:38;;;;;;;23.70;15.32;;;;;;;18.13;74.46;101339.91;5112558;28;20114;-62
2023/06/09 06:44:03;;;;;;;22.92;14.73;;;;;;;18.26;73.89;101344.38;5112564;28;20080;-60
2023/06/09 06:46:30;;;;;;;24.65;15.15;;;;;;;18.38;73.85;101338.78;5112264;28;20105;-61
2023/06/09 06:48:55;;;;;;;26.38;15.20;;;;;;;18.52;73.64;101337.66;5112887;28;20066;-60
2023/06/09 06:51:20;;;;;;;25.92;16.02;;;;;;;18.63;72.91;101335.19;5112294;28;20098;-61
2023/06/09 06:53:46;;;;;;;27.08;16.73;;;;;;;18.72;72.47;101335.91;5112502;28;20035;-60
2023/06/09 06:56:11;;;;;;;28.13;15.05;;;;;;;18.83;72.50;101342.69;5112285;28;20360;-61
2023/06/09 06:58:36;;;;;;;24.35;15.55;;;;;;;19.01;72.62;101342.47;5112622;28;20024;-61
2023/06/09 07:01:03;;;;;;;28.23;15.10;;;;;;;19.20;71.42;101338.22;5112313;28;20039;-61
2023/06/09 07:03:28;;;;;;;27.20;16.08;;;;;;;19.22;71.12;101342.34;5112488;28;20035;-62
2023/06/09 07:05:54;;;;;;;25.50;14.95;;;;;;;19.22;71.08;101345.13;5111984;28;20032;-62
2023/06/09 07:08:19;;;;;;;25.67;15.75;;;;;;;19.31;70.78;101344.97;5110290;28;20026;-62
2023/06/09 07:10:45;;;;;;;24.45;15.13;;;;;;;19.30;70.86;101347.00;5092096;28;20036;-60
2023/06/09 07:13:10;;;;;;;25.13;14.65;;;;;;;19.36;71.25;101341.94;5092064;28;20446;-61
2023/06/09 07:15:37;;;;;;;28.92;15.85;;;;;;;19.48;71.10;101329.88;5088711;28;20117;-60
2023/06/09 07:18:05;;;;;;;27.05;15.65;;;;;;;19.53;70.47;101331.59;5091681;28;20452;-61
2023/06/09 07:20:31;;;;;;;24.88;16.05;;;;;;;19.52;70.72;101333.56;5091578;28;20047;-61
2023/06/09 07:22:56;;;;;;;25.88;15.02;;;;;;;19.65;70.32;101337.16;5091787;28;20032;-61
2023/06/09 07:25:21;;;;;;;26.33;16.40;;;;;;;19.73;70.35;101333.41;5084343;28;20347;-60
2023/06/09 07:27:47;;;;;;;28.60;17.40;;;;;;;19.76;69.80;101334.69;5110817;28;20046;-60
2023/06/09 07:30:13;;;;;;;29.65;17.08;;;;;;;19.85;70.31;101331.69;5102794;28;20024;-60
2023/06/09 07:32:41;;;;;;;27.20;17.45;;;;;;;20.05;68.97;101335.50;5089188;28;20032;-61
2023/06/09 07:35:12;;;;;;;27.33;17.70;;;;;;;20.29;68.76;101336.50;5090443;28;20142;-61
2023/06/09 07:37:42;;;;;;;26.42;16.85;;;;;;;20.39;68.07;101344.41;5090589;28;20153;-60
2023/06/09 07:40:09;;;;;;;27.10;17.05;;;;;;;20.58;67.40;101340.88;5090515;28;20032;-61
2023/06/09 07:42:35;;;;;;;26.30;17.85;;;;;;;20.76;67.33;101330.09;5089027;28;20051;-61
2023/06/09 07:45:00;;;;;;;27.15;17.52;;;;;;;20.86;66.64;101337.19;5090385;28;20612;-61
2023/06/09 07:47:26;;;;;;;25.55;18.40;;;;;;;20.84;65.99;101340.34;5091573;28;20032;-61
2023/06/09 07:49:51;;;;;;;27.00;17.17;;;;;;;20.87;66.44;101334.00;5093983;28;20152;-60
2023/06/09 07:52:16;;;;;;;26.00;16.13;;;;;;;20.99;66.04;101335.06;5114921;28;20023;-62
2023/06/09 07:54:42;;;;;;;25.73;17.88;;;;;;;21.06;64.83;101340.84;5115203;28;20043;-62
2023/06/09 07:57:07;;;;;;;25.75;18.15;;;;;;;21.10;65.24;101335.31;5095978;28;20547;-62
2023/06/09 07:59:33;;;;;;;24.13;18.02;;;;;;;21.21;65.11;101332.75;5095603;28;20028;-61
2023/06/09 08:01:58;;;;;;;25.50;17.98;;;;;;;21.39;64.66;101330.31;5094973;28;20067;-61
2023/06/09 08:04:25;;;;;;;28.42;19.58;;;;;;;21.50;64.03;101328.53;5093572;28;20024;-61
2023/06/09 08:06:50;;;;;;;26.90;18.70;;;;;;;21.61;64.00;101329.63;5092232;28;20102;-61
2023/06/09 08:09:16;;;;;;;26.17;18.48;;;;;;;21.62;63.36;101330.41;5092036;28;20197;-60
2023/06/09 08:11:41;;;;;;;26.58;18.80;;;;;;;21.63;63.44;101332.84;5091781;28;20039;-60
2023/06/09 08:14:06;;;;;;;25.90;17.20;;;;;;;21.81;63.55;101338.84;5093705;28;20032;-60
2023/06/09 08:16:32;;;;;;;27.02;19.02;;;;;;;21.91;62.96;101336.63;5093845;28;20042;-61
2023/06/09 08:18:57;;;;;;;25.58;17.50;;;;;;;22.05;62.40;101325.66;5093424;28;20036;-60
2023/06/09 08:21:22;;;;;;;24.88;17.67;;;;;;;22.20;62.49;101323.88;5093567;28;20024;-60
2023/06/09 08:23:48;;;;;;;24.98;17.83;;;;;;;22.35;62.70;101326.97;5093396;28;20060;-61
2023/06/09 08:26:13;;;;;;;28.67;19.58;;;;;;;22.45;61.67;101340.47;5093081;28;20032;-60
2023/06/09 08:28:38;;;;;;;27.55;19.30;;;;;;;22.53;61.22;101328.13;5074941;28;20825;-61
2023/06/09 08:31:05;;;;;;;24.98;18.10;;;;;;;22.64;61.29;101333.91;5092690;28;20040;-60
2023/06/09 08:33:35;;;;;;;27.17;18.33;;;;;;;22.77;60.80;101333.72;5093240;28;20384;-61
2023/06/09 08:36:04;;;;;;;25.40;18.08;;;;;;;22.92;60.48;101327.09;5099131;28;20036;-62
2023/06/09 08:38:36;;;;;;;27.08;19.13;;;;;;;22.92;60.10;101329.91;5113475;28;20031;-61
2023/06/09 08:41:08;;;;;;;26.13;18.42;;;;;;;22.99;60.17;101327.22;5113075;28;20046;-61
2023/06/09 08:43:34;;;;;;;27.05;19.00;;;;;;;23.03;59.09;101327.28;5113431;28;20027;-58
2023/06/09 08:46:02;;;;;;;25.75;18.23;;;;;;;23.00;59.66;101330.84;5112906;28;20034;-60
2023/06/09 08:48:30;;;;;;;25.27;17.50;;;;;;;23.02;58.91;101323.63;5113175;28;20072;-57
2023/06/09 08:50:57;;;;;;;23.95;17.70;;;;;;;23.13;59.35;101311.69;5112971;28;20119;-59
2023/06/09 08:53:23;;;;;;;26.63;18.80;;;;;;;23.20;58.50;101320.28;5113113;28;20028;-59
2023/06/09 08:55:49;;;;;;;23.98;17.52;;;;;;;23.25;59.11;101324.78;5111880;28;20057;-57
2023/06/09 08:58:15;;;;;;;25.38;17.60;;;;;;;23.41;58.68;101324.59;5111930;28;20035;-59
2023/06/09 09:00:40;;;;;;;25.88;18.15;;;;;;;23.52;58.07;101322.72;5111975;27;20035;-59
2023/06/09 09:03:06;;;;;;;25.05;18.05;;;;;;;23.54;57.64;101317.50;5112061;28;20031;-59
2023/06/09 09:05:32;;;;;;;25.85;18.27;;;;;;;23.63;56.66;101326.50;5111695;28;20027;-59
2023/06/09 09:07:57;;;;;;;27.02;16.92;;;;;;;23.83;56.71;101317.84;5111925;28;20032;-59
2023/06/09 09:10:23;;;;;;;24.27;16.83;;;;;;;23.99;55.99;101321.28;5112490;28;20030;-59
2023/06/09 09:12:54;;;;;;;26.77;18.08;;;;;;;24.22;55.42;101323.13;5112627;28;20024;-58
2023/06/09 09:15:22;;;;;;;24.33;16.85;;;;;;;24.42;54.56;101318.03;5112856;28;20027;-59
2023/06/09 09:17:48;;;;;;;23.35;16.52;;;;;;;24.56;53.89;101313.72;5112299;28;20480;-58
2023/06/09 09:20:17;;;;;;;25.90;17.50;;;;;;;24.57;53.61;101309.66;5111291;28;20058;-59
2023/06/09 09:22:50;;;;;;;26.25;17.42;;;;;;;24.54;53.36;101311.25;5093426;28;20116;-59
2023/06/09 09:25:26;;;;;;;24.92;16.05;;;;;;;24.64;52.87;101309.72;5088903;28;20042;-59
2023/06/09 09:28:12;;;;;;;24.40;17.08;;;;;;;24.84;53.24;101310.31;5091992;28;20081;-59
2023/06/09 09:30:48;;;;;;;23.42;16.23;;;;;;;25.10;53.19;101299.13;5092082;28;20031;-59
2023/06/09 09:33:15;;;;;;;24.05;16.42;;;;;;;25.21;52.32;101289.47;5090985;28;20028;-59
2023/06/09 09:35:43;;;;;;;23.98;15.95;;;;;;;25.34;51.70;101298.44;5092221;28;20035;-59
2023/06/09 09:38:18;;;;;;;24.00;16.88;;;;;;;25.23;50.89;101292.75;5091628;28;20593;-59
2023/06/09 09:40:46;;;;;;;24.08;15.77;;;;;;;25.28;50.94;101288.72;5092784;28;20153;-61
2023/06/09 09:43:11;;;;;;;24.98;15.57;;;;;;;25.51;49.02;101293.28;5111999;28;20039;-59
2023/06/09 09:45:39;;;;;;;23.25;15.20;;;;;;;25.70;48.93;101294.97;5112044;28;20389;-59
2023/06/09 09:48:12;;;;;;;23.85;15.88;;;;;;;25.68;48.52;101288.88;5112150;28;20498;-60
2023/06/09 09:50:39;;;;;;;23.67;16.20;;;;;;;25.73;48.96;101285.69;5112129;28;20149;-59
2023/06/09 09:53:06;;;;;;;23.52;16.15;;;;;;;25.99;48.95;101292.19;5111818;28;20146;-60
2023/06/09 09:55:34;;;;;;;23.55;16.25;;;;;;;26.12;47.85;101293.44;5112038;28;20039;-60
2023/06/09 09:58:03;;;;;;;22.38;15.63;;;;;;;26.26;48.06;101292.63;5111724;28;20031;-60
2023/06/09 10:00:29;;;;;;;22.95;16.20;;;;;;;26.16;47.08;101284.97;5108736;28;20024;-59
2023/06/09 10:02:59;;;;;;;24.75;15.90;;;;;;;26.21;47.50;101289.44;5111221;28;20039;-59
2023/06/09 10:05:29;;;;;;;22.05;15.90;;;;;;;26.18;46.52;101281.72;5111616;28;20371;-59
2023/06/09 10:07:56;;;;;;;22.77;15.70;;;;;;;26.26;47.00;101283.34;5111283;28;20039;-60
2023/06/09 10:10:21;;;;;;;22.33;16.48;;;;;;;25.96;46.97;101293.81;5111112;28;20028;-60
2023/06/09 10:12:49;;;;;;;22.73;15.30;;;;;;;26.04;47.43;101279.66;5111185;28;20039;-59
2023/06/09 10:15:15;;;;;;;21.63;14.85;;;;;;;26.18;46.71;101281.72;5111479;28;20112;-59
2023/06/09 10:17:42;;;;;;;22.55;15.63;;;;;;;26.13;46.15;101283.72;5095740;28;20062;-59
2023/06/09 10:20:09;;;;;;;24.05;15.00;;;;;;;26.37;47.13;101272.81;5091129;28;20056;-60
2023/06/09 10:22:36;;;;;;;22.00;15.85;;;;;;;26.30;46.07;101282.13;5091820;28;20081;-60
2023/06/09 10:25:03;;;;;;;20.88;15.05;;;;;;;26.30;46.02;101275.66;5091054;28;20391;-60
2023/06/09 10:27:30;;;;;;;24.15;14.40;;;;;;;26.39;45.52;101278.88;5104541;28;20031;-60
2023/06/09 10:29:56;;;;;;;24.05;14.45;;;;;;;26.51;43.14;101277.66;5111611;28;20036;-61
2023/06/09 10:32:26;;;;;;;21.48;14.05;;;;;;;26.57;43.63;101278.06;5110249;27;20038;-60
2023/06/09 10:34:53;;;;;;;21.10;14.38;;;;;;;26.69;44.04;101268.31;5111257;28;20028;-61
2023/06/09 10:37:33;;;;;;;21.65;13.65;;;;;;;26.77;45.02;101267.94;5110909;28;20038;-60
2023/06/09 10:40:09;;;;;;;20.98;13.85;;;;;;;26.91;43.65;101260.59;5111206;28;20028;-60
2023/06/09 10:42:58;;;;;;;21.63;14.20;;;;;;;27.01;43.65;101271.09;5111346;28;20058;-61
2023/06/09 10:45:46;;;;;;;22.52;13.60;;;;;;;26.90;42.43;101265.47;5111663;28;20031;-61
2023/06/09 10:48:12;;;;;;;21.42;13.18;;;;;;;26.88;42.33;101259.38;5111393;28;20040;-60
2023/06/09 10:50:37;;;;;;;20.58;13.18;;;;;;;27.15;41.25;101261.72;5111469;28;20141;-61
2023/06/09 10:53:14;;;;;;;21.30;13.15;;;;;;;27.30;41.23;101253.16;5085921;28;20655;-61
2023/06/09 10:55:39;;;;;;;21.05;12.98;;;;;;;27.32;40.71;101254.34;5068098;28;20036;-59
2023/06/09 10:58:39;;;;;;;20.58;13.07;;;;;;;27.49;41.32;101255.50;5086410;28;20028;-60
2023/06/09 11:01:09;;;;;;;20.50;13.00;;;;;;;27.54;40.95;101251.41;5090696;28;20036;-61
2023/06/09 11:03:34;;;;;;;20.95;12.48;;;;;;;27.58;40.25;101245.75;5090651;28;20035;-60
2023/06/09 11:06:00;;;;;;;21.30;12.57;;;;;;;27.49;38.35;101241.28;5088934;28;20506;-60
2023/06/09 11:08:26;;;;;;;21.58;12.35;;;;;;;27.51;38.57;101255.09;5090611;28;20039;-60
2023/06/09 11:10:51;;;;;;;20.75;12.05;;;;;;;27.71;39.39;101239.16;5090479;28;20032;-60